sensor_id;sensor_type;location;lat;lon;timestamp;temperature;humidity
37274;DHT22;23161;51.250;5.554;2022-12-18T00:01:31;-7.10;99.90
37274;DHT22;23161;51.250;5.554;2022-12-18T00:03:59;-7.20;99.90
37274;DHT22;23161;51.250;5.554;2022-12-18T00:06:26;-7.30;99.90
37274;DHT22;23161;51.250;5.554;2022-12-18T00:08:54;-7.40;99.90
37274;DHT22;23161;51.250;5.554;2022-12-18T00:11:23;-7.30;99.90
37274;DHT22;23161;51.250;5.554;2022-12-18T00:13:49;-7.40;99.90
37274;DHT22;23161;51.250;5.554;2022-12-18T00:16:19;-7.40;99.90
37274;DHT22;23161;51.250;5.554;2022-12-18T00:18:47;-7.40;99.90
37274;DHT22;23161;51.250;5.554;2022-12-18T00:21:14;-7.40;99.90
37274;DHT22;23161;51.250;5.554;2022-12-18T00:23:42;-7.40;99.90
37274;DHT22;23161;51.250;5.554;2022-12-18T00:26:12;-7.30;99.90
37274;DHT22;23161;51.250;5.554;2022-12-18T00:28:39;-7.20;99.90
37274;DHT22;23161;51.250;5.554;2022-12-18T00:31:07;-7.20;99.90
37274;DHT22;23161;51.250;5.554;2022-12-18T00:33:34;-7.30;99.90
37274;DHT22;23161;51.250;5.554;2022-12-18T00:36:15;-7.30;99.90
37274;DHT22;23161;51.250;5.554;2022-12-18T00:38:41;-7.30;99.90
37274;DHT22;23161;51.250;5.554;2022-12-18T00:41:09;-7.20;99.90
37274;DHT22;23161;51.250;5.554;2022-12-18T00:43:36;-7.20;99.90
37274;DHT22;23161;51.250;5.554;2022-12-18T00:46:02;-7.30;99.90
37274;DHT22;23161;51.250;5.554;2022-12-18T00:48:28;-7.30;99.90
37274;DHT22;23161;51.250;5.554;2022-12-18T00:50:54;-7.30;99.90
37274;DHT22;23161;51.250;5.554;2022-12-18T00:53:20;-7.40;99.90
37274;DHT22;23161;51.250;5.554;2022-12-18T00:55:46;-7.30;99.90
37274;DHT22;23161;51.250;5.554;2022-12-18T00:58:14;-7.20;99.90
37274;DHT22;23161;51.250;5.554;2022-12-18T01:00:41;-7.30;99.90
37274;DHT22;23161;51.250;5.554;2022-12-18T01:03:12;-7.30;99.90
37274;DHT22;23161;51.250;5.554;2022-12-18T01:05:40;-7.30;99.90
37274;DHT22;23161;51.250;5.554;2022-12-18T01:08:06;-7.40;99.90
37274;DHT22;23161;51.250;5.554;2022-12-18T01:10:32;-7.30;99.90
37274;DHT22;23161;51.250;5.554;2022-12-18T01:12:58;-7.30;99.90
37274;DHT22;23161;51.250;5.554;2022-12-18T01:15:23;-7.50;99.90
37274;DHT22;23161;51.250;5.554;2022-12-18T01:17:52;-7.60;99.90
37274;DHT22;23161;51.250;5.554;2022-12-18T01:20:18;-7.60;99.90
37274;DHT22;23161;51.250;5.554;2022-12-18T01:22:43;-7.60;99.90
37274;DHT22;23161;51.250;5.554;2022-12-18T01:25:09;-7.60;99.90
37274;DHT22;23161;51.250;5.554;2022-12-18T01:27:35;-7.60;99.90
37274;DHT22;23161;51.250;5.554;2022-12-18T01:30:03;-7.50;99.90
37274;DHT22;23161;51.250;5.554;2022-12-18T01:32:30;-7.50;99.90
37274;DHT22;23161;51.250;5.554;2022-12-18T01:34:56;-7.20;99.90
37274;DHT22;23161;51.250;5.554;2022-12-18T01:37:22;-7.20;99.90
37274;DHT22;23161;51.250;5.554;2022-12-18T01:39:48;-7.30;99.90
37274;DHT22;23161;51.250;5.554;2022-12-18T01:42:16;-7.30;99.90
37274;DHT22;23161;51.250;5.554;2022-12-18T01:49:53;-7.00;99.90
37274;DHT22;23161;51.250;5.554;2022-12-18T01:52:20;-7.00;99.90
37274;DHT22;23161;51.250;5.554;2022-12-18T01:54:47;-7.10;99.90
37274;DHT22;23161;51.250;5.554;2022-12-18T01:57:14;-7.10;99.90
37274;DHT22;23161;51.250;5.554;2022-12-18T01:59:42;-7.20;99.90
37274;DHT22;23161;51.250;5.554;2022-12-18T02:02:09;-7.30;99.90
37274;DHT22;23161;51.250;5.554;2022-12-18T02:04:35;-7.20;99.90
37274;DHT22;23161;51.250;5.554;2022-12-18T02:09:46;-7.20;99.90
37274;DHT22;23161;51.250;5.554;2022-12-18T02:12:22;-7.20;99.90
37274;DHT22;23161;51.250;5.554;2022-12-18T02:15:19;-7.30;99.90
37274;DHT22;23161;51.250;5.554;2022-12-18T02:17:56;-7.50;99.90
37274;DHT22;23161;51.250;5.554;2022-12-18T02:28:53;-7.30;99.90
37274;DHT22;23161;51.250;5.554;2022-12-18T02:31:26;-7.50;99.90
37274;DHT22;23161;51.250;5.554;2022-12-18T02:33:55;-7.50;99.90
37274;DHT22;23161;51.250;5.554;2022-12-18T02:36:22;-7.60;99.90
37274;DHT22;23161;51.250;5.554;2022-12-18T02:38:50;-7.60;99.90
37274;DHT22;23161;51.250;5.554;2022-12-18T02:41:18;-7.60;99.90
37274;DHT22;23161;51.250;5.554;2022-12-18T02:43:48;-7.70;99.90
37274;DHT22;23161;51.250;5.554;2022-12-18T02:57:22;-7.50;99.90
37274;DHT22;23161;51.250;5.554;2022-12-18T02:59:56;-7.50;99.90
37274;DHT22;23161;51.250;5.554;2022-12-18T03:02:36;-7.50;99.90
37274;DHT22;23161;51.250;5.554;2022-12-18T03:07:39;-7.40;99.90
37274;DHT22;23161;51.250;5.554;2022-12-18T03:10:12;-7.40;99.90
37274;DHT22;23161;51.250;5.554;2022-12-18T03:12:43;-7.40;99.90
37274;DHT22;23161;51.250;5.554;2022-12-18T03:15:17;-7.40;99.90
37274;DHT22;23161;51.250;5.554;2022-12-18T03:17:55;-7.40;99.90
37274;DHT22;23161;51.250;5.554;2022-12-18T03:20:26;-7.40;99.90
37274;DHT22;23161;51.250;5.554;2022-12-18T03:22:59;-7.40;99.90
37274;DHT22;23161;51.250;5.554;2022-12-18T03:25:27;-7.50;99.90
37274;DHT22;23161;51.250;5.554;2022-12-18T03:27:56;-7.60;99.90
37274;DHT22;23161;51.250;5.554;2022-12-18T03:30:25;-7.50;99.90
37274;DHT22;23161;51.250;5.554;2022-12-18T03:33:02;-7.60;99.90
37274;DHT22;23161;51.250;5.554;2022-12-18T03:35:35;-7.70;99.90
37274;DHT22;23161;51.250;5.554;2022-12-18T03:38:03;-7.80;99.90
37274;DHT22;23161;51.250;5.554;2022-12-18T03:43:11;-7.90;99.90
37274;DHT22;23161;51.250;5.554;2022-12-18T03:45:51;-7.90;99.90
37274;DHT22;23161;51.250;5.554;2022-12-18T03:48:29;-7.90;99.90
37274;DHT22;23161;51.250;5.554;2022-12-18T03:51:06;-7.80;99.90
37274;DHT22;23161;51.250;5.554;2022-12-18T03:53:37;-7.80;99.90
37274;DHT22;23161;51.250;5.554;2022-12-18T03:56:08;-8.00;99.90
37274;DHT22;23161;51.250;5.554;2022-12-18T03:58:40;-8.10;99.90
37274;DHT22;23161;51.250;5.554;2022-12-18T04:01:16;-8.00;99.90
37274;DHT22;23161;51.250;5.554;2022-12-18T04:03:44;-8.00;99.90
37274;DHT22;23161;51.250;5.554;2022-12-18T04:06:13;-8.00;99.90
37274;DHT22;23161;51.250;5.554;2022-12-18T04:08:41;-7.90;99.90
37274;DHT22;23161;51.250;5.554;2022-12-18T04:11:10;-7.90;99.90
37274;DHT22;23161;51.250;5.554;2022-12-18T04:13:38;-7.90;99.90
37274;DHT22;23161;51.250;5.554;2022-12-18T04:16:08;-7.90;99.90
37274;DHT22;23161;51.250;5.554;2022-12-18T04:18:39;-7.80;99.90
37274;DHT22;23161;51.250;5.554;2022-12-18T04:21:05;-7.80;99.90
37274;DHT22;23161;51.250;5.554;2022-12-18T04:23:32;-7.70;99.90
37274;DHT22;23161;51.250;5.554;2022-12-18T04:25:58;-7.70;99.90
37274;DHT22;23161;51.250;5.554;2022-12-18T04:28:53;-7.50;99.90
37274;DHT22;23161;51.250;5.554;2022-12-18T04:31:18;-7.50;99.90
37274;DHT22;23161;51.250;5.554;2022-12-18T04:33:44;-7.40;99.90
37274;DHT22;23161;51.250;5.554;2022-12-18T04:36:10;-7.40;99.90
37274;DHT22;23161;51.250;5.554;2022-12-18T04:38:38;-7.40;99.90
37274;DHT22;23161;51.250;5.554;2022-12-18T04:41:08;-7.60;99.90
37274;DHT22;23161;51.250;5.554;2022-12-18T04:43:34;-7.50;99.90
37274;DHT22;23161;51.250;5.554;2022-12-18T04:46:07;-7.30;99.90
37274;DHT22;23161;51.250;5.554;2022-12-18T04:48:34;-7.30;99.90
37274;DHT22;23161;51.250;5.554;2022-12-18T04:51:01;-7.30;99.90
37274;DHT22;23161;51.250;5.554;2022-12-18T04:53:27;-7.30;99.90
37274;DHT22;23161;51.250;5.554;2022-12-18T04:56:08;-7.30;99.90
37274;DHT22;23161;51.250;5.554;2022-12-18T04:58:34;-7.40;99.90
37274;DHT22;23161;51.250;5.554;2022-12-18T05:01:01;-7.40;99.90
37274;DHT22;23161;51.250;5.554;2022-12-18T05:03:29;-7.50;99.90
37274;DHT22;23161;51.250;5.554;2022-12-18T05:05:55;-7.60;99.90
37274;DHT22;23161;51.250;5.554;2022-12-18T05:08:21;-7.60;99.90
37274;DHT22;23161;51.250;5.554;2022-12-18T05:10:47;-7.50;99.90
37274;DHT22;23161;51.250;5.554;2022-12-18T05:13:13;-7.70;99.90
37274;DHT22;23161;51.250;5.554;2022-12-18T05:15:39;-7.70;99.90
37274;DHT22;23161;51.250;5.554;2022-12-18T05:18:04;-7.80;99.90
37274;DHT22;23161;51.250;5.554;2022-12-18T05:20:31;-7.80;99.90
37274;DHT22;23161;51.250;5.554;2022-12-18T05:22:57;-7.70;99.90
37274;DHT22;23161;51.250;5.554;2022-12-18T05:25:23;-7.60;99.90
37274;DHT22;23161;51.250;5.554;2022-12-18T05:27:49;-7.40;99.90
37274;DHT22;23161;51.250;5.554;2022-12-18T05:30:15;-7.60;99.90
37274;DHT22;23161;51.250;5.554;2022-12-18T05:32:41;-7.60;99.90
37274;DHT22;23161;51.250;5.554;2022-12-18T05:35:09;-7.70;99.90
37274;DHT22;23161;51.250;5.554;2022-12-18T05:37:35;-7.70;99.90
37274;DHT22;23161;51.250;5.554;2022-12-18T05:40:03;-7.80;99.90
37274;DHT22;23161;51.250;5.554;2022-12-18T05:42:30;-7.80;99.90
37274;DHT22;23161;51.250;5.554;2022-12-18T05:44:56;-7.70;99.90
37274;DHT22;23161;51.250;5.554;2022-12-18T05:47:21;-7.80;99.90
37274;DHT22;23161;51.250;5.554;2022-12-18T05:49:47;-7.80;99.90
37274;DHT22;23161;51.250;5.554;2022-12-18T05:52:13;-7.90;99.90
37274;DHT22;23161;51.250;5.554;2022-12-18T05:54:39;-7.90;99.90
37274;DHT22;23161;51.250;5.554;2022-12-18T05:57:05;-7.90;99.90
37274;DHT22;23161;51.250;5.554;2022-12-18T05:59:31;-7.80;99.90
37274;DHT22;23161;51.250;5.554;2022-12-18T06:01:57;-7.80;99.90
37274;DHT22;23161;51.250;5.554;2022-12-18T06:04:23;-7.80;99.90
37274;DHT22;23161;51.250;5.554;2022-12-18T06:06:49;-7.60;99.90
37274;DHT22;23161;51.250;5.554;2022-12-18T06:09:14;-7.40;99.90
37274;DHT22;23161;51.250;5.554;2022-12-18T06:11:40;-7.40;99.90
37274;DHT22;23161;51.250;5.554;2022-12-18T06:14:06;-7.40;99.90
37274;DHT22;23161;51.250;5.554;2022-12-18T06:16:32;-7.40;99.90
37274;DHT22;23161;51.250;5.554;2022-12-18T06:18:59;-7.30;99.90
37274;DHT22;23161;51.250;5.554;2022-12-18T06:21:26;-7.30;99.90
37274;DHT22;23161;51.250;5.554;2022-12-18T06:23:52;-7.40;99.90
37274;DHT22;23161;51.250;5.554;2022-12-18T06:26:18;-7.50;99.90
37274;DHT22;23161;51.250;5.554;2022-12-18T06:28:44;-7.50;99.90
37274;DHT22;23161;51.250;5.554;2022-12-18T06:31:11;-7.60;99.90
37274;DHT22;23161;51.250;5.554;2022-12-18T06:33:38;-7.70;99.90
37274;DHT22;23161;51.250;5.554;2022-12-18T06:36:05;-7.80;99.90
37274;DHT22;23161;51.250;5.554;2022-12-18T06:38:33;-7.80;99.90
37274;DHT22;23161;51.250;5.554;2022-12-18T06:40:59;-7.80;99.90
37274;DHT22;23161;51.250;5.554;2022-12-18T06:43:28;-7.80;99.90
37274;DHT22;23161;51.250;5.554;2022-12-18T06:46:00;-7.70;99.90
37274;DHT22;23161;51.250;5.554;2022-12-18T06:48:27;-7.70;99.90
37274;DHT22;23161;51.250;5.554;2022-12-18T06:50:52;-7.70;99.90
37274;DHT22;23161;51.250;5.554;2022-12-18T06:53:18;-7.70;99.90
37274;DHT22;23161;51.250;5.554;2022-12-18T06:55:44;-7.70;99.90
37274;DHT22;23161;51.250;5.554;2022-12-18T06:58:10;-7.70;99.90
37274;DHT22;23161;51.250;5.554;2022-12-18T07:00:35;-7.80;99.90
37274;DHT22;23161;51.250;5.554;2022-12-18T07:03:02;-7.60;99.90
37274;DHT22;23161;51.250;5.554;2022-12-18T07:05:28;-7.60;99.90
37274;DHT22;23161;51.250;5.554;2022-12-18T07:07:54;-7.60;99.90
37274;DHT22;23161;51.250;5.554;2022-12-18T07:10:19;-7.50;99.90
37274;DHT22;23161;51.250;5.554;2022-12-18T07:12:46;-7.60;99.90
37274;DHT22;23161;51.250;5.554;2022-12-18T07:15:12;-7.40;99.90
37274;DHT22;23161;51.250;5.554;2022-12-18T07:17:38;-7.30;99.90
37274;DHT22;23161;51.250;5.554;2022-12-18T07:20:04;-7.30;99.90
37274;DHT22;23161;51.250;5.554;2022-12-18T07:22:30;-7.20;99.90
37274;DHT22;23161;51.250;5.554;2022-12-18T07:24:56;-7.30;99.90
37274;DHT22;23161;51.250;5.554;2022-12-18T07:27:22;-7.40;99.90
37274;DHT22;23161;51.250;5.554;2022-12-18T07:29:48;-7.30;99.90
37274;DHT22;23161;51.250;5.554;2022-12-18T07:32:14;-7.20;99.90
37274;DHT22;23161;51.250;5.554;2022-12-18T07:34:40;-7.20;99.90
37274;DHT22;23161;51.250;5.554;2022-12-18T07:37:05;-7.10;99.90
37274;DHT22;23161;51.250;5.554;2022-12-18T07:39:31;-7.10;99.90
37274;DHT22;23161;51.250;5.554;2022-12-18T07:41:57;-7.10;99.90
37274;DHT22;23161;51.250;5.554;2022-12-18T07:44:42;-7.10;99.90
37274;DHT22;23161;51.250;5.554;2022-12-18T07:47:08;-7.00;99.90
37274;DHT22;23161;51.250;5.554;2022-12-18T07:49:34;-7.00;99.90
37274;DHT22;23161;51.250;5.554;2022-12-18T07:52:00;-7.00;99.90
37274;DHT22;23161;51.250;5.554;2022-12-18T07:54:27;-6.90;99.90
37274;DHT22;23161;51.250;5.554;2022-12-18T07:56:53;-6.70;99.90
37274;DHT22;23161;51.250;5.554;2022-12-18T07:59:18;-6.60;99.90
37274;DHT22;23161;51.250;5.554;2022-12-18T08:01:44;-6.60;99.90
37274;DHT22;23161;51.250;5.554;2022-12-18T08:04:10;-6.40;99.90
37274;DHT22;23161;51.250;5.554;2022-12-18T08:06:36;-6.30;99.90
37274;DHT22;23161;51.250;5.554;2022-12-18T08:09:02;-6.30;99.90
37274;DHT22;23161;51.250;5.554;2022-12-18T08:11:28;-6.20;99.90
37274;DHT22;23161;51.250;5.554;2022-12-18T08:13:54;-6.20;99.90
37274;DHT22;23161;51.250;5.554;2022-12-18T08:16:22;-6.00;99.90
37274;DHT22;23161;51.250;5.554;2022-12-18T08:18:48;-5.90;99.90
37274;DHT22;23161;51.250;5.554;2022-12-18T08:21:17;-5.80;99.90
37274;DHT22;23161;51.250;5.554;2022-12-18T08:23:44;-5.80;99.90
37274;DHT22;23161;51.250;5.554;2022-12-18T08:26:11;-5.70;99.90
37274;DHT22;23161;51.250;5.554;2022-12-18T08:28:37;-5.60;99.90
37274;DHT22;23161;51.250;5.554;2022-12-18T08:31:03;-5.50;99.90
37274;DHT22;23161;51.250;5.554;2022-12-18T08:33:29;-5.30;99.90
37274;DHT22;23161;51.250;5.554;2022-12-18T08:35:55;-5.10;99.90
37274;DHT22;23161;51.250;5.554;2022-12-18T08:38:20;-4.90;99.90
37274;DHT22;23161;51.250;5.554;2022-12-18T08:40:46;-4.80;99.90
37274;DHT22;23161;51.250;5.554;2022-12-18T08:43:12;-4.40;99.90
37274;DHT22;23161;51.250;5.554;2022-12-18T08:45:56;-3.60;99.90
37274;DHT22;23161;51.250;5.554;2022-12-18T08:48:22;-3.70;99.90
37274;DHT22;23161;51.250;5.554;2022-12-18T08:50:56;-3.30;99.90
37274;DHT22;23161;51.250;5.554;2022-12-18T08:53:22;-3.10;99.90
37274;DHT22;23161;51.250;5.554;2022-12-18T08:55:47;-3.10;99.90
37274;DHT22;23161;51.250;5.554;2022-12-18T08:58:13;-2.50;99.90
37274;DHT22;23161;51.250;5.554;2022-12-18T09:00:43;-2.20;99.90
37274;DHT22;23161;51.250;5.554;2022-12-18T09:03:17;-2.40;99.90
37274;DHT22;23161;51.250;5.554;2022-12-18T09:06:17;-2.40;99.90
37274;DHT22;23161;51.250;5.554;2022-12-18T09:08:44;-2.30;99.90
37274;DHT22;23161;51.250;5.554;2022-12-18T09:11:14;-2.30;99.90
37274;DHT22;23161;51.250;5.554;2022-12-18T09:13:40;-2.40;99.90
37274;DHT22;23161;51.250;5.554;2022-12-18T09:16:06;-2.50;99.90
37274;DHT22;23161;51.250;5.554;2022-12-18T09:18:31;-2.70;99.90
37274;DHT22;23161;51.250;5.554;2022-12-18T09:20:57;-2.90;99.90
37274;DHT22;23161;51.250;5.554;2022-12-18T09:23:23;-3.00;99.90
37274;DHT22;23161;51.250;5.554;2022-12-18T09:25:49;-2.80;99.90
37274;DHT22;23161;51.250;5.554;2022-12-18T09:28:17;-2.60;99.90
37274;DHT22;23161;51.250;5.554;2022-12-18T09:30:46;-2.70;99.90
37274;DHT22;23161;51.250;5.554;2022-12-18T09:33:12;-2.60;99.90
37274;DHT22;23161;51.250;5.554;2022-12-18T09:35:40;-2.30;99.90
37274;DHT22;23161;51.250;5.554;2022-12-18T09:38:07;-2.30;99.90
37274;DHT22;23161;51.250;5.554;2022-12-18T09:40:43;-2.10;99.90
37274;DHT22;23161;51.250;5.554;2022-12-18T09:43:18;-2.20;99.90
37274;DHT22;23161;51.250;5.554;2022-12-18T09:46:09;-2.10;99.90
37274;DHT22;23161;51.250;5.554;2022-12-18T09:48:41;-1.80;99.90
37274;DHT22;23161;51.250;5.554;2022-12-18T09:51:18;-1.60;99.90
37274;DHT22;23161;51.250;5.554;2022-12-18T09:53:50;-1.20;99.90
37274;DHT22;23161;51.250;5.554;2022-12-18T09:56:19;-1.10;99.90
37274;DHT22;23161;51.250;5.554;2022-12-18T09:59:02;-0.90;99.90
37274;DHT22;23161;51.250;5.554;2022-12-18T10:01:29;-0.90;99.90
37274;DHT22;23161;51.250;5.554;2022-12-18T10:03:55;-1.00;99.90
37274;DHT22;23161;51.250;5.554;2022-12-18T10:09:19;-1.40;99.90
37274;DHT22;23161;51.250;5.554;2022-12-18T10:12:00;-1.40;99.90
37274;DHT22;23161;51.250;5.554;2022-12-18T10:20:44;-1.50;99.90
37274;DHT22;23161;51.250;5.554;2022-12-18T10:26:03;-1.60;99.90
37274;DHT22;23161;51.250;5.554;2022-12-18T10:28:31;-1.60;99.90
37274;DHT22;23161;51.250;5.554;2022-12-18T10:30:58;-1.70;99.90
37274;DHT22;23161;51.250;5.554;2022-12-18T10:33:28;-1.60;99.90
37274;DHT22;23161;51.250;5.554;2022-12-18T10:35:54;-1.60;99.90
37274;DHT22;23161;51.250;5.554;2022-12-18T10:38:23;-1.70;99.90
37274;DHT22;23161;51.250;5.554;2022-12-18T10:40:59;-1.70;99.90
37274;DHT22;23161;51.250;5.554;2022-12-18T10:43:27;-1.60;99.90
37274;DHT22;23161;51.250;5.554;2022-12-18T10:48:55;-1.70;99.90
37274;DHT22;23161;51.250;5.554;2022-12-18T10:51:27;-1.70;99.90
37274;DHT22;23161;51.250;5.554;2022-12-18T10:54:14;-1.70;99.90
37274;DHT22;23161;51.250;5.554;2022-12-18T10:56:41;-1.80;99.90
37274;DHT22;23161;51.250;5.554;2022-12-18T10:59:12;-1.60;99.90
37274;DHT22;23161;51.250;5.554;2022-12-18T11:04:20;-1.70;99.90
37274;DHT22;23161;51.250;5.554;2022-12-18T11:07:12;-1.60;99.90
37274;DHT22;23161;51.250;5.554;2022-12-18T11:09:40;-1.70;99.90
37274;DHT22;23161;51.250;5.554;2022-12-18T11:14:54;-1.80;99.90
37274;DHT22;23161;51.250;5.554;2022-12-18T11:19:58;-1.70;99.90
37274;DHT22;23161;51.250;5.554;2022-12-18T11:22:33;-1.70;99.90
37274;DHT22;23161;51.250;5.554;2022-12-18T11:25:04;-1.80;99.90
37274;DHT22;23161;51.250;5.554;2022-12-18T11:27:31;-1.20;99.90
37274;DHT22;23161;51.250;5.554;2022-12-18T11:33:11;-1.50;99.90
37274;DHT22;23161;51.250;5.554;2022-12-18T11:38:42;-1.40;99.90
37274;DHT22;23161;51.250;5.554;2022-12-18T11:44:32;-1.30;99.90
37274;DHT22;23161;51.250;5.554;2022-12-18T11:47:18;-1.40;99.90
37274;DHT22;23161;51.250;5.554;2022-12-18T11:49:48;-1.30;99.90
37274;DHT22;23161;51.250;5.554;2022-12-18T11:52:22;-1.40;99.90
37274;DHT22;23161;51.250;5.554;2022-12-18T11:54:58;-1.20;99.90
37274;DHT22;23161;51.250;5.554;2022-12-18T12:00:25;-1.20;99.90
37274;DHT22;23161;51.250;5.554;2022-12-18T12:08:33;-1.10;99.90
37274;DHT22;23161;51.250;5.554;2022-12-18T12:11:44;-0.90;99.90
37274;DHT22;23161;51.250;5.554;2022-12-18T12:23:05;-0.90;99.90
37274;DHT22;23161;51.250;5.554;2022-12-18T12:25:41;-0.80;99.90
37274;DHT22;23161;51.250;5.554;2022-12-18T12:28:23;-0.80;99.90
37274;DHT22;23161;51.250;5.554;2022-12-18T12:31:00;-0.50;99.90
37274;DHT22;23161;51.250;5.554;2022-12-18T12:33:47;-0.70;99.90
37274;DHT22;23161;51.250;5.554;2022-12-18T12:36:30;-0.60;99.90
37274;DHT22;23161;51.250;5.554;2022-12-18T12:39:01;-0.70;99.90
37274;DHT22;23161;51.250;5.554;2022-12-18T12:41:32;-0.60;99.90
37274;DHT22;23161;51.250;5.554;2022-12-18T12:44:28;-0.50;99.90
37274;DHT22;23161;51.250;5.554;2022-12-18T12:47:00;-0.60;99.90
37274;DHT22;23161;51.250;5.554;2022-12-18T12:49:31;-0.50;99.90
37274;DHT22;23161;51.250;5.554;2022-12-18T12:52:12;-0.50;99.90
37274;DHT22;23161;51.250;5.554;2022-12-18T12:54:40;-0.40;99.90
37274;DHT22;23161;51.250;5.554;2022-12-18T12:57:31;-0.50;99.90
37274;DHT22;23161;51.250;5.554;2022-12-18T13:02:39;-0.40;99.90
37274;DHT22;23161;51.250;5.554;2022-12-18T13:08:10;-0.40;99.90
37274;DHT22;23161;51.250;5.554;2022-12-18T13:10:40;-0.40;99.90
37274;DHT22;23161;51.250;5.554;2022-12-18T13:13:10;-0.30;99.90
37274;DHT22;23161;51.250;5.554;2022-12-18T13:16:22;-0.30;99.90
37274;DHT22;23161;51.250;5.554;2022-12-18T13:18:28;-0.30;99.90
37274;DHT22;23161;51.250;5.554;2022-12-18T13:25:53;-0.30;99.90
37274;DHT22;23161;51.250;5.554;2022-12-18T13:31:07;-0.20;99.90
37274;DHT22;23161;51.250;5.554;2022-12-18T13:33:46;-0.20;99.90
37274;DHT22;23161;51.250;5.554;2022-12-18T13:36:32;-0.20;99.90
37274;DHT22;23161;51.250;5.554;2022-12-18T13:41:44;-0.20;99.90
37274;DHT22;23161;51.250;5.554;2022-12-18T13:44:32;-0.20;99.90
37274;DHT22;23161;51.250;5.554;2022-12-18T13:46:59;-0.20;99.90
37274;DHT22;23161;51.250;5.554;2022-12-18T13:49:37;-0.20;99.90
37274;DHT22;23161;51.250;5.554;2022-12-18T13:52:18;-0.10;99.90
37274;DHT22;23161;51.250;5.554;2022-12-18T13:54:49;-0.10;99.90
37274;DHT22;23161;51.250;5.554;2022-12-18T13:57:35;-0.10;99.90
37274;DHT22;23161;51.250;5.554;2022-12-18T14:02:48;-0.30;99.90
37274;DHT22;23161;51.250;5.554;2022-12-18T14:05:36;-0.20;99.90
37274;DHT22;23161;51.250;5.554;2022-12-18T14:08:10;-0.20;99.90
37274;DHT22;23161;51.250;5.554;2022-12-18T14:10:41;-0.30;99.90
37274;DHT22;23161;51.250;5.554;2022-12-18T14:13:10;-0.10;99.90
37274;DHT22;23161;51.250;5.554;2022-12-18T14:15:43;-0.10;99.90
37274;DHT22;23161;51.250;5.554;2022-12-18T14:20:59;-0.10;99.90
37274;DHT22;23161;51.250;5.554;2022-12-18T14:23:40;-0.10;99.90
37274;DHT22;23161;51.250;5.554;2022-12-18T14:26:25;-0.10;99.90
37274;DHT22;23161;51.250;5.554;2022-12-18T14:28:53;-0.10;99.90
37274;DHT22;23161;51.250;5.554;2022-12-18T14:31:25;-0.10;99.90
37274;DHT22;23161;51.250;5.554;2022-12-18T14:33:52;-0.20;99.90
37274;DHT22;23161;51.250;5.554;2022-12-18T14:36:21;-0.10;99.90
37274;DHT22;23161;51.250;5.554;2022-12-18T14:38:57;-0.20;99.90
37274;DHT22;23161;51.250;5.554;2022-12-18T14:41:23;-0.20;99.90
37274;DHT22;23161;51.250;5.554;2022-12-18T14:43:51;-0.20;99.90
37274;DHT22;23161;51.250;5.554;2022-12-18T14:49:03;-0.20;99.90
37274;DHT22;23161;51.250;5.554;2022-12-18T14:51:32;-0.30;99.90
37274;DHT22;23161;51.250;5.554;2022-12-18T14:54:04;-0.30;99.90
37274;DHT22;23161;51.250;5.554;2022-12-18T14:56:35;-0.30;99.90
37274;DHT22;23161;51.250;5.554;2022-12-18T15:02:17;-0.30;99.90
37274;DHT22;23161;51.250;5.554;2022-12-18T15:04:44;-0.30;99.90
37274;DHT22;23161;51.250;5.554;2022-12-18T15:07:22;-0.30;99.90
37274;DHT22;23161;51.250;5.554;2022-12-18T15:10:13;-0.30;99.90
37274;DHT22;23161;51.250;5.554;2022-12-18T15:12:45;-0.30;99.90
37274;DHT22;23161;51.250;5.554;2022-12-18T15:18:10;-0.40;99.90
37274;DHT22;23161;51.250;5.554;2022-12-18T15:23:24;-0.40;99.90
37274;DHT22;23161;51.250;5.554;2022-12-18T15:26:05;-0.40;99.90
37274;DHT22;23161;51.250;5.554;2022-12-18T15:28:36;-0.40;99.90
37274;DHT22;23161;51.250;5.554;2022-12-18T15:33:36;-0.40;99.90
37274;DHT22;23161;51.250;5.554;2022-12-18T15:36:10;-0.40;99.90
37274;DHT22;23161;51.250;5.554;2022-12-18T15:38:36;-0.30;99.90
37274;DHT22;23161;51.250;5.554;2022-12-18T15:41:03;-0.30;99.90
37274;DHT22;23161;51.250;5.554;2022-12-18T15:43:32;-0.40;99.90
37274;DHT22;23161;51.250;5.554;2022-12-18T15:46:21;-0.40;99.90
37274;DHT22;23161;51.250;5.554;2022-12-18T15:48:49;-0.40;99.90
37274;DHT22;23161;51.250;5.554;2022-12-18T15:53:46;-0.30;99.90
37274;DHT22;23161;51.250;5.554;2022-12-18T15:56:14;-0.40;99.90
37274;DHT22;23161;51.250;5.554;2022-12-18T15:58:59;-0.30;99.90
37274;DHT22;23161;51.250;5.554;2022-12-18T16:01:28;-0.30;99.90
37274;DHT22;23161;51.250;5.554;2022-12-18T16:03:54;-0.40;99.90
37274;DHT22;23161;51.250;5.554;2022-12-18T16:06:24;-0.40;99.90
37274;DHT22;23161;51.250;5.554;2022-12-18T16:08:50;-0.30;99.90
37274;DHT22;23161;51.250;5.554;2022-12-18T16:11:26;-0.30;99.90
37274;DHT22;23161;51.250;5.554;2022-12-18T16:14:22;-0.30;99.90
37274;DHT22;23161;51.250;5.554;2022-12-18T16:16:50;-0.40;99.90
37274;DHT22;23161;51.250;5.554;2022-12-18T16:19:16;-0.30;99.90
37274;DHT22;23161;51.250;5.554;2022-12-18T16:21:43;-0.30;99.90
37274;DHT22;23161;51.250;5.554;2022-12-18T16:24:21;-0.40;99.90
37274;DHT22;23161;51.250;5.554;2022-12-18T16:26:48;-0.40;99.90
37274;DHT22;23161;51.250;5.554;2022-12-18T16:29:14;-0.30;99.90
37274;DHT22;23161;51.250;5.554;2022-12-18T16:31:40;-0.40;99.90
37274;DHT22;23161;51.250;5.554;2022-12-18T16:36:36;-0.40;99.90
37274;DHT22;23161;51.250;5.554;2022-12-18T16:39:01;-0.40;99.90
37274;DHT22;23161;51.250;5.554;2022-12-18T16:41:27;-0.40;99.90
37274;DHT22;23161;51.250;5.554;2022-12-18T16:43:59;-0.30;99.90
37274;DHT22;23161;51.250;5.554;2022-12-18T16:46:25;-0.30;99.90
37274;DHT22;23161;51.250;5.554;2022-12-18T16:48:51;-0.30;99.90
37274;DHT22;23161;51.250;5.554;2022-12-18T16:51:17;-0.30;99.90
37274;DHT22;23161;51.250;5.554;2022-12-18T16:53:43;-0.30;99.90
37274;DHT22;23161;51.250;5.554;2022-12-18T16:56:09;-0.40;99.90
37274;DHT22;23161;51.250;5.554;2022-12-18T16:58:35;-0.40;99.90
37274;DHT22;23161;51.250;5.554;2022-12-18T17:01:06;-0.40;99.90
37274;DHT22;23161;51.250;5.554;2022-12-18T17:03:32;-0.30;99.90
37274;DHT22;23161;51.250;5.554;2022-12-18T17:06:05;-0.30;99.90
37274;DHT22;23161;51.250;5.554;2022-12-18T17:08:35;-0.30;99.90
37274;DHT22;23161;51.250;5.554;2022-12-18T17:11:06;-0.30;99.90
37274;DHT22;23161;51.250;5.554;2022-12-18T17:13:32;-0.30;99.90
37274;DHT22;23161;51.250;5.554;2022-12-18T17:16:05;-0.30;99.90
37274;DHT22;23161;51.250;5.554;2022-12-18T17:18:32;-0.30;99.90
37274;DHT22;23161;51.250;5.554;2022-12-18T17:20:59;-0.30;99.90
37274;DHT22;23161;51.250;5.554;2022-12-18T17:23:26;-0.30;99.90
37274;DHT22;23161;51.250;5.554;2022-12-18T17:25:56;-0.30;99.90
37274;DHT22;23161;51.250;5.554;2022-12-18T17:28:27;-0.30;99.90
37274;DHT22;23161;51.250;5.554;2022-12-18T17:30:54;-0.40;99.90
37274;DHT22;23161;51.250;5.554;2022-12-18T17:33:21;-0.30;99.90
37274;DHT22;23161;51.250;5.554;2022-12-18T17:35:48;-0.30;99.90
37274;DHT22;23161;51.250;5.554;2022-12-18T17:38:14;-0.30;99.90
37274;DHT22;23161;51.250;5.554;2022-12-18T17:40:40;-0.30;99.90
37274;DHT22;23161;51.250;5.554;2022-12-18T17:43:07;-0.30;99.90
37274;DHT22;23161;51.250;5.554;2022-12-18T17:45:35;-0.30;99.90
37274;DHT22;23161;51.250;5.554;2022-12-18T17:48:06;-0.20;99.90
37274;DHT22;23161;51.250;5.554;2022-12-18T17:50:33;-0.20;99.90